createdAt,value
2019-03-19T00:00:55.741Z,0.70
2019-03-19T00:01:58.974Z,0.65
2019-03-19T00:03:01.990Z,0.40
2019-03-19T00:04:05.210Z,0.40
2019-03-19T00:05:08.076Z,0.42
2019-03-19T00:06:10.898Z,0.56
2019-03-19T00:07:14.459Z,0.58
2019-03-19T00:08:17.348Z,0.58
2019-03-19T00:09:20.183Z,0.65
2019-03-19T00:10:25.321Z,0.62
2019-03-19T00:11:28.163Z,0.56
2019-03-19T00:12:30.980Z,0.56
2019-03-19T00:13:34.152Z,0.52
2019-03-19T00:14:36.974Z,0.51
2019-03-19T00:15:39.791Z,0.45
2019-03-19T00:16:42.623Z,0.49
2019-03-19T00:17:45.558Z,0.48
2019-03-19T00:18:48.382Z,0.55
2019-03-19T00:19:53.071Z,0.45
2019-03-19T00:20:55.885Z,0.52
2019-03-19T00:21:58.764Z,0.45
2019-03-19T00:23:01.767Z,0.36
2019-03-19T00:24:04.640Z,0.31
2019-03-19T00:25:07.437Z,0.25
2019-03-19T00:26:10.561Z,0.25
2019-03-19T00:27:13.382Z,0.22
2019-03-19T00:28:16.699Z,0.32
2019-03-19T00:29:19.720Z,0.36
2019-03-19T00:30:22.558Z,0.38
2019-03-19T00:31:26.410Z,0.42
2019-03-19T00:32:29.906Z,0.50
2019-03-19T00:33:32.822Z,0.50
2019-03-19T00:34:36.075Z,0.38
2019-03-19T00:35:38.980Z,0.36
2019-03-19T00:36:41.836Z,0.28
2019-03-19T00:37:44.647Z,0.28
2019-03-19T00:38:47.772Z,0.12
2019-03-19T00:39:50.686Z,0.12
2019-03-19T00:40:53.541Z,0.24
2019-03-19T00:41:58.005Z,0.23
2019-03-19T00:43:00.811Z,0.23
2019-03-19T00:44:03.649Z,0.23
2019-03-19T00:45:07.139Z,0.25
2019-03-19T00:46:09.939Z,0.25
2019-03-19T00:47:12.838Z,0.26
2019-03-19T00:48:15.656Z,0.23
2019-03-19T00:49:18.485Z,0.22
2019-03-19T00:50:22.304Z,0.19
2019-03-19T00:51:25.413Z,0.24
2019-03-19T00:52:28.290Z,0.24
2019-03-19T00:53:31.109Z,0.20
2019-03-19T00:54:34.021Z,0.13
2019-03-19T00:55:40.965Z,0.13
2019-03-19T00:56:41.735Z,-0.06
2019-03-19T00:57:44.865Z,-0.22
2019-03-19T00:58:47.781Z,-0.24
2019-03-19T00:59:52.829Z,-0.25
2019-03-19T01:00:55.633Z,-0.32
2019-03-19T01:01:58.513Z,-0.36
2019-03-19T01:03:01.399Z,-0.35
2019-03-19T01:04:04.873Z,-0.35
2019-03-19T01:05:07.702Z,-0.46
2019-03-19T01:06:10.528Z,-0.46
2019-03-19T01:07:13.403Z,-0.41
2019-03-19T01:08:16.577Z,-0.33
2019-03-19T01:09:19.755Z,-0.39
2019-03-19T01:10:22.865Z,-0.35
2019-03-19T01:11:26.767Z,-0.35
2019-03-19T01:12:29.583Z,-0.38
2019-03-19T01:13:32.524Z,-0.40
2019-03-19T01:14:35.398Z,-0.40
2019-03-19T01:15:38.225Z,-0.42
2019-03-19T01:16:41.113Z,-0.38
2019-03-19T01:17:44.288Z,-0.34
2019-03-19T01:18:47.223Z,-0.25
2019-03-19T01:19:50.467Z,-0.23
2019-03-19T01:20:53.309Z,-0.23
2019-03-19T01:21:56.133Z,-0.28
2019-03-19T01:22:59.276Z,-0.32
2019-03-19T01:24:02.185Z,-0.31
2019-03-19T01:25:05.001Z,-0.37
2019-03-19T01:26:08.282Z,-0.37
2019-03-19T01:27:11.201Z,-0.22
2019-03-19T01:28:14.103Z,-0.12
2019-03-19T01:29:17.296Z,-0.16
2019-03-19T01:30:20.127Z,-0.13
2019-03-19T01:31:22.972Z,-0.13
2019-03-19T01:32:26.156Z,-0.13
2019-03-19T01:33:29.068Z,-0.12
2019-03-19T01:34:31.943Z,-0.16
2019-03-19T01:35:35.077Z,-0.14
2019-03-19T01:36:40.931Z,-0.23
2019-03-19T01:37:44.153Z,-0.37
2019-03-19T01:38:47.106Z,-0.37
2019-03-19T01:39:50.372Z,-0.42
2019-03-19T01:40:53.267Z,-0.43
2019-03-19T01:41:56.367Z,-0.42
2019-03-19T01:42:59.260Z,-0.42
2019-03-19T01:44:02.163Z,-0.45
2019-03-19T01:45:06.546Z,-0.45
2019-03-19T01:46:09.395Z,-0.39
2019-03-19T01:47:12.218Z,-0.37
2019-03-19T01:48:15.369Z,-0.37
2019-03-19T01:49:18.187Z,-0.32
2019-03-19T01:50:21.108Z,-0.32
2019-03-19T01:51:23.948Z,-0.17
2019-03-19T01:52:26.881Z,-0.16
2019-03-19T01:53:32.249Z,-0.16
2019-03-19T01:54:38.396Z,-0.16
2019-03-19T01:55:41.217Z,-0.16
2019-03-19T01:56:44.164Z,-0.12
2019-03-19T01:57:47.005Z,-0.06
2019-03-19T01:58:51.093Z,-0.18
2019-03-19T01:59:54.443Z,-0.18
2019-03-19T02:00:57.588Z,-0.23
2019-03-19T02:02:00.403Z,-0.32
2019-03-19T02:03:03.300Z,-0.31
2019-03-19T02:04:06.121Z,-0.36
2019-03-19T02:05:09.002Z,-0.32
2019-03-19T02:06:11.852Z,-0.26
2019-03-19T02:07:15.041Z,-0.23
2019-03-19T02:08:17.844Z,-0.23
2019-03-19T02:09:20.660Z,-0.29
2019-03-19T02:10:23.506Z,-0.29
2019-03-19T02:11:26.314Z,-0.37
2019-03-19T02:12:29.183Z,-0.37
2019-03-19T02:13:32.291Z,-0.48
2019-03-19T02:14:35.540Z,-0.60
2019-03-19T02:15:38.460Z,-0.60
2019-03-19T02:16:41.273Z,-0.63
2019-03-19T02:17:44.111Z,-0.59
2019-03-19T02:18:47.364Z,-0.51
2019-03-19T02:19:50.462Z,-0.51
2019-03-19T02:20:53.795Z,-0.47
2019-03-19T02:21:56.668Z,-0.47
2019-03-19T02:22:59.536Z,-0.59
2019-03-19T02:24:02.705Z,-0.64
2019-03-19T02:25:05.528Z,-0.64
2019-03-19T02:26:16.320Z,-0.54
2019-03-19T02:27:13.292Z,-0.48
2019-03-19T02:28:16.113Z,-0.49
2019-03-19T02:29:19.424Z,-0.39
2019-03-19T02:30:22.245Z,-0.33
2019-03-19T02:31:25.963Z,-0.30
2019-03-19T02:32:29.084Z,-0.30
2019-03-19T02:33:32.041Z,-0.30
2019-03-19T02:34:35.238Z,-0.45
2019-03-19T02:35:38.444Z,-0.49
2019-03-19T02:36:41.276Z,-0.49
2019-03-19T02:37:44.110Z,-0.54
2019-03-19T02:38:47.287Z,-0.68
2019-03-19T02:39:50.138Z,-0.68
2019-03-19T02:40:52.963Z,-0.67
2019-03-19T02:41:55.805Z,-0.61
2019-03-19T02:42:59.254Z,-0.64
2019-03-19T02:44:02.199Z,-0.67
2019-03-19T02:45:05.005Z,-0.67
2019-03-19T02:46:08.201Z,-0.55
2019-03-19T02:47:11.367Z,-0.55
2019-03-19T02:48:14.206Z,-0.54
2019-03-19T02:49:17.125Z,-0.46
2019-03-19T02:50:20.267Z,-0.41
2019-03-19T02:51:23.088Z,-0.41
2019-03-19T02:52:25.941Z,-0.53
2019-03-19T02:53:29.712Z,-0.61
2019-03-19T02:54:33.089Z,-0.55
2019-03-19T02:55:35.962Z,-0.49
2019-03-19T02:56:39.128Z,-0.45
2019-03-19T02:57:42.363Z,-0.45
2019-03-19T02:58:45.644Z,-0.45
2019-03-19T02:59:49.347Z,-0.41
2019-03-19T03:00:52.173Z,-0.35
2019-03-19T03:01:54.964Z,-0.32
2019-03-19T03:02:58.086Z,-0.28
2019-03-19T03:04:00.909Z,-0.29
2019-03-19T03:05:04.204Z,-0.29
2019-03-19T03:06:07.026Z,-0.29
2019-03-19T03:07:09.849Z,-0.24
2019-03-19T03:08:12.689Z,-0.24
2019-03-19T03:09:15.823Z,-0.25
2019-03-19T03:10:18.715Z,-0.24
2019-03-19T03:11:21.609Z,-0.24
2019-03-19T03:12:24.481Z,-0.28
2019-03-19T03:13:27.327Z,-0.36
2019-03-19T03:14:30.168Z,-0.29
2019-03-19T03:15:33.315Z,-0.29
2019-03-19T03:16:36.220Z,-0.31
2019-03-19T03:17:39.042Z,-0.31
2019-03-19T03:18:41.892Z,-0.41
2019-03-19T03:19:44.694Z,-0.41
2019-03-19T03:20:47.861Z,-0.45
2019-03-19T03:21:51.065Z,-0.43
2019-03-19T03:22:53.900Z,-0.43
2019-03-19T03:23:56.757Z,-0.47
2019-03-19T03:24:59.959Z,-0.48
2019-03-19T03:26:02.876Z,-0.53
2019-03-19T03:27:05.804Z,-0.51
2019-03-19T03:28:08.931Z,-0.45
2019-03-19T03:29:11.707Z,-0.33
2019-03-19T03:30:14.574Z,-0.33
2019-03-19T03:31:17.472Z,-0.26
2019-03-19T03:32:20.814Z,-0.26
2019-03-19T03:33:24.084Z,-0.29
2019-03-19T03:34:27.399Z,-0.38
2019-03-19T03:35:30.270Z,-0.49
2019-03-19T03:36:33.111Z,-0.63
2019-03-19T03:37:38.288Z,-0.67
2019-03-19T03:38:41.153Z,-0.67
2019-03-19T03:39:44.623Z,-0.61
2019-03-19T03:40:47.459Z,-0.57
2019-03-19T03:41:50.294Z,-0.52
2019-03-19T03:42:53.196Z,-0.52
2019-03-19T03:43:56.005Z,-0.43
2019-03-19T03:44:58.838Z,-0.40
2019-03-19T03:46:01.646Z,-0.38
2019-03-19T03:47:04.467Z,-0.30
2019-03-19T03:48:07.846Z,-0.41
2019-03-19T03:49:10.669Z,-0.41
2019-03-19T03:50:13.535Z,-0.41
2019-03-19T03:51:19.512Z,-0.37
2019-03-19T03:52:23.104Z,-0.37
2019-03-19T03:53:25.980Z,-0.29
2019-03-19T03:54:29.721Z,-0.26
2019-03-19T03:55:33.661Z,-0.37
2019-03-19T03:56:38.034Z,-0.44
2019-03-19T03:57:43.970Z,-0.44
2019-03-19T03:58:59.880Z,-0.44
2019-03-19T03:59:54.466Z,-0.42
2019-03-19T04:00:57.384Z,-0.44
2019-03-19T04:02:00.211Z,-0.40
2019-03-19T04:03:03.123Z,-0.40
2019-03-19T04:04:08.391Z,-0.34
2019-03-19T04:05:11.507Z,-0.38
2019-03-19T04:06:14.446Z,-0.43
2019-03-19T04:07:17.290Z,-0.42
2019-03-19T04:08:20.490Z,-0.38
2019-03-19T04:09:23.347Z,-0.40
2019-03-19T04:10:26.252Z,-0.41
2019-03-19T04:11:29.364Z,-0.31
2019-03-19T04:12:32.199Z,-0.31
2019-03-19T04:13:34.997Z,-0.32
2019-03-19T04:14:37.916Z,-0.32
2019-03-19T04:15:40.763Z,-0.32
2019-03-19T04:16:44.438Z,-0.41
2019-03-19T04:17:47.995Z,-0.50
2019-03-19T04:18:51.096Z,-0.50
2019-03-19T04:19:54.353Z,-0.48
2019-03-19T04:21:00.450Z,-0.62
2019-03-19T04:22:03.969Z,-0.62
2019-03-19T04:23:07.103Z,-0.62
2019-03-19T04:24:10.214Z,-0.67
2019-03-19T04:25:13.366Z,-0.63
2019-03-19T04:26:16.261Z,-0.56
2019-03-19T04:27:19.523Z,-0.54
2019-03-19T04:28:22.435Z,-0.56
2019-03-19T04:29:25.323Z,-0.77
2019-03-19T04:30:28.509Z,-0.77
2019-03-19T04:31:31.703Z,-0.96
2019-03-19T04:32:34.594Z,-1.13
2019-03-19T04:33:37.463Z,-1.17
2019-03-19T04:34:40.304Z,-1.21
2019-03-19T04:35:43.220Z,-1.16
2019-03-19T04:36:47.952Z,-1.06
2019-03-19T04:37:50.971Z,-0.87
2019-03-19T04:38:53.875Z,-0.72
2019-03-19T04:39:56.772Z,-0.65
2019-03-19T04:40:59.623Z,-0.57
2019-03-19T04:42:02.466Z,-0.51
2019-03-19T04:43:05.651Z,-0.60
2019-03-19T04:44:08.970Z,-0.60
2019-03-19T04:45:11.809Z,-0.53
2019-03-19T04:46:15.014Z,-0.51
2019-03-19T04:47:18.272Z,-0.45
2019-03-19T04:48:27.081Z,-0.46
2019-03-19T04:49:29.918Z,-0.52
2019-03-19T04:50:33.117Z,-0.58
2019-03-19T04:51:37.890Z,-0.56
2019-03-19T04:52:44.165Z,-0.54
2019-03-19T04:53:47.426Z,-0.51
2019-03-19T04:54:50.573Z,-0.52
2019-03-19T04:55:53.410Z,-0.58
2019-03-19T04:56:56.357Z,-0.58
2019-03-19T04:57:59.538Z,-0.72
2019-03-19T04:59:02.343Z,-0.72
2019-03-19T05:00:05.199Z,-0.75
2019-03-19T05:01:08.383Z,-0.68
2019-03-19T05:02:11.318Z,-0.76
2019-03-19T05:03:14.121Z,-0.87
2019-03-19T05:04:16.941Z,-0.87
2019-03-19T05:05:19.758Z,-0.96
2019-03-19T05:06:22.576Z,-1.06
2019-03-19T05:07:27.481Z,-1.09
2019-03-19T05:08:30.656Z,-1.07
2019-03-19T05:09:33.517Z,-1.07
2019-03-19T05:10:36.699Z,-1.07
2019-03-19T05:11:39.591Z,-1.14
2019-03-19T05:12:42.790Z,-1.15
2019-03-19T05:13:46.438Z,-1.15
2019-03-19T05:14:49.279Z,-1.23
2019-03-19T05:15:52.143Z,-1.15
2019-03-19T05:16:55.399Z,-1.07
2019-03-19T05:17:58.246Z,-1.07
2019-03-19T05:19:01.483Z,-1.05
2019-03-19T05:20:04.627Z,-1.16
2019-03-19T05:21:07.459Z,-1.10
2019-03-19T05:22:10.314Z,-1.01
2019-03-19T05:23:13.908Z,-0.91
2019-03-19T05:24:18.180Z,-0.94
2019-03-19T05:25:22.242Z,-1.00
2019-03-19T05:26:30.347Z,-1.09
2019-03-19T05:27:40.568Z,-1.11
2019-03-19T05:28:46.502Z,-0.98
2019-03-19T05:29:50.985Z,-1.05
2019-03-19T05:30:53.803Z,-1.21
2019-03-19T05:31:56.650Z,-1.21
2019-03-19T05:33:02.467Z,-0.94
2019-03-19T05:34:05.336Z,-0.84
2019-03-19T05:35:08.413Z,-0.75
2019-03-19T05:36:11.379Z,-0.75
2019-03-19T05:37:14.204Z,-0.72
2019-03-19T05:38:17.109Z,-0.72
2019-03-19T05:39:20.258Z,-0.80
2019-03-19T05:40:23.181Z,-0.86
2019-03-19T05:41:26.476Z,-0.77
2019-03-19T05:42:29.736Z,-0.76
2019-03-19T05:43:32.599Z,-0.77
2019-03-19T05:44:35.456Z,-0.77
2019-03-19T05:45:38.927Z,-0.70
2019-03-19T05:46:41.757Z,-0.68
2019-03-19T05:47:45.016Z,-0.82
2019-03-19T05:48:48.224Z,-0.77
2019-03-19T05:49:51.068Z,-0.72
2019-03-19T05:50:57.079Z,-0.79
2019-03-19T05:52:00.293Z,-0.88
2019-03-19T05:53:04.296Z,-0.88
2019-03-19T05:54:07.109Z,-0.82
2019-03-19T05:55:09.924Z,-0.81
2019-03-19T05:56:13.121Z,-0.81
2019-03-19T05:57:17.838Z,-0.77
2019-03-19T05:58:21.422Z,-0.71
2019-03-19T05:59:24.340Z,-0.64
2019-03-19T06:00:29.424Z,-0.70
2019-03-19T06:01:34.767Z,-0.71
2019-03-19T06:02:37.586Z,-0.63
2019-03-19T06:03:40.488Z,-0.63
2019-03-19T06:04:44.094Z,-0.53
2019-03-19T06:05:46.920Z,-0.51
2019-03-19T06:06:49.750Z,-0.54
2019-03-19T06:07:52.661Z,-0.54
2019-03-19T06:08:55.552Z,-0.49
2019-03-19T06:10:02.102Z,-0.39
2019-03-19T06:11:06.867Z,-0.30
2019-03-19T06:12:10.191Z,-0.28
2019-03-19T06:13:13.071Z,-0.25
2019-03-19T06:14:15.956Z,-0.37
2019-03-19T06:15:18.783Z,-0.32
2019-03-19T06:16:21.620Z,-0.28
2019-03-19T06:17:24.874Z,-0.23
2019-03-19T06:18:35.075Z,-0.12
2019-03-19T06:19:33.217Z,-0.17
2019-03-19T06:20:36.054Z,-0.25
2019-03-19T06:21:38.915Z,-0.22
2019-03-19T06:22:41.787Z,-0.13
2019-03-19T06:23:44.996Z,-0.11
2019-03-19T06:24:47.845Z,-0.06
2019-03-19T06:25:50.733Z,-0.02
2019-03-19T06:26:53.714Z,-0.02
2019-03-19T06:28:00.711Z,-0.26
2019-03-19T06:29:01.498Z,-0.16
2019-03-19T06:43:54.125Z,0.01
2019-03-19T06:44:54.447Z,0.03
2019-03-19T06:46:00.337Z,0.03
2019-03-19T06:47:03.159Z,0.10
2019-03-19T06:48:06.481Z,0.15
2019-03-19T06:49:14.852Z,0.15
2019-03-19T06:50:16.849Z,0.09
2019-03-19T06:51:19.661Z,-0.06
2019-03-19T06:52:22.889Z,-0.11
2019-03-19T06:53:25.774Z,-0.11
2019-03-19T06:54:30.825Z,-0.20
2019-03-19T06:55:33.953Z,-0.10
2019-03-19T06:56:36.767Z,0.07
2019-03-19T06:57:39.691Z,0.07
2019-03-19T06:58:43.464Z,0.06
2019-03-19T06:59:47.551Z,0.03
2019-03-19T07:00:50.445Z,0.08
2019-03-19T07:01:56.891Z,0.23
2019-03-19T07:02:59.749Z,0.34
2019-03-19T07:04:02.608Z,0.30
2019-03-19T07:05:08.736Z,0.30
2019-03-19T07:06:13.856Z,0.32
2019-03-19T07:07:18.909Z,0.41
2019-03-19T07:08:22.187Z,0.46
2019-03-19T07:09:28.321Z,0.48
2019-03-19T07:10:32.324Z,0.51
2019-03-19T07:11:35.233Z,0.48
2019-03-19T07:12:38.115Z,0.46
2019-03-19T07:13:43.847Z,0.46
2019-03-19T07:14:49.690Z,0.56
2019-03-19T07:15:56.721Z,0.57
2019-03-19T07:17:01.191Z,0.57
2019-03-19T07:18:04.616Z,0.27
2019-03-19T07:19:10.231Z,0.27
2019-03-19T07:20:14.467Z,0.12
2019-03-19T07:21:17.741Z,0.12
2019-03-19T07:22:20.581Z,0.19
2019-03-19T07:23:23.448Z,0.15
2019-03-19T07:24:35.490Z,0.15
2019-03-19T07:25:38.400Z,-0.02
2019-03-19T07:26:41.304Z,-0.02
2019-03-19T07:27:46.015Z,0.10
2019-03-19T07:28:50.238Z,0.12
2019-03-19T07:29:53.471Z,0.12
2019-03-19T07:30:56.365Z,0.08
2019-03-19T07:31:59.209Z,-0.03
2019-03-19T07:33:02.455Z,0.00
2019-03-19T07:34:05.556Z,0.00
2019-03-19T07:35:08.390Z,0.31
2019-03-19T07:36:11.279Z,0.44
2019-03-19T07:37:15.177Z,0.54
2019-03-19T07:38:18.031Z,0.54
2019-03-19T07:39:20.922Z,0.46
2019-03-19T07:40:25.898Z,0.43
2019-03-19T07:41:28.813Z,0.56
2019-03-19T07:42:31.797Z,0.68
2019-03-19T07:43:34.738Z,0.71
2019-03-19T07:44:39.207Z,0.89
2019-03-19T07:45:42.463Z,0.86
2019-03-19T07:46:46.118Z,0.86
2019-03-19T07:47:49.007Z,0.90
2019-03-19T07:48:52.370Z,1.00
2019-03-19T07:49:55.195Z,1.01
2019-03-19T07:50:58.032Z,0.94
2019-03-19T07:52:00.996Z,0.94
2019-03-19T07:53:07.104Z,1.09
2019-03-19T07:54:10.003Z,1.06
2019-03-19T07:55:13.566Z,1.04
2019-03-19T07:56:16.424Z,0.95
2019-03-19T07:57:19.265Z,1.00
2019-03-19T07:58:35.829Z,1.03
2019-03-19T07:59:29.707Z,1.03
2019-03-19T08:00:32.945Z,1.17
2019-03-19T08:01:40.067Z,1.18
2019-03-19T08:02:45.126Z,1.18
2019-03-19T08:03:48.505Z,1.18
2019-03-19T08:04:54.613Z,1.10
2019-03-19T08:05:57.794Z,1.02
2019-03-19T08:07:00.631Z,1.03
2019-03-19T08:08:10.228Z,1.11
2019-03-19T08:09:15.847Z,1.11
2019-03-19T08:10:18.783Z,1.20
2019-03-19T08:11:21.673Z,1.15
2019-03-19T08:12:25.047Z,1.18
2019-03-19T08:13:27.965Z,1.20
2019-03-19T08:14:30.856Z,1.21
2019-03-19T08:15:33.751Z,1.21
2019-03-19T08:16:36.592Z,1.38
2019-03-19T08:17:42.800Z,1.47
2019-03-19T08:18:49.697Z,1.46
2019-03-19T08:19:53.189Z,1.46
2019-03-19T08:21:01.089Z,1.57
2019-03-19T08:22:03.924Z,1.59
2019-03-19T08:23:08.970Z,1.53
2019-03-19T08:24:13.006Z,1.53
2019-03-19T08:25:27.270Z,1.53
2019-03-19T08:26:30.463Z,1.50
2019-03-19T08:27:33.402Z,1.53
2019-03-19T08:28:36.323Z,1.53
2019-03-19T08:29:39.416Z,1.45
2019-03-19T08:30:42.699Z,1.45
2019-03-19T08:31:46.005Z,1.58
2019-03-19T08:32:49.199Z,1.96
2019-03-19T08:33:52.501Z,1.80
2019-03-19T08:34:58.524Z,1.65
2019-03-19T08:36:09.427Z,1.65
2019-03-19T08:37:09.298Z,1.11
2019-03-19T08:38:12.343Z,1.17
2019-03-19T08:39:15.437Z,1.17
2019-03-19T08:40:18.318Z,1.36
2019-03-19T08:41:21.283Z,1.68
2019-03-19T08:42:26.360Z,2.06
2019-03-19T08:43:29.647Z,2.21
2019-03-19T08:44:32.567Z,2.12
2019-03-19T08:45:35.827Z,1.95
2019-03-19T08:46:38.854Z,2.04
2019-03-19T08:47:41.718Z,2.24
2019-03-19T08:48:44.844Z,2.44
2019-03-19T08:49:47.705Z,2.44
2019-03-19T08:50:50.597Z,2.72
2019-03-19T08:51:55.072Z,2.73
2019-03-19T08:52:58.684Z,2.73
2019-03-19T08:54:01.551Z,2.88
2019-03-19T08:55:06.920Z,2.77
2019-03-19T08:56:15.827Z,2.77
2019-03-19T08:57:20.120Z,2.96
2019-03-19T08:58:26.273Z,3.03
2019-03-19T08:59:33.179Z,3.03
2019-03-19T09:00:41.054Z,2.98
2019-03-19T09:01:41.574Z,2.98
2019-03-19T09:02:44.418Z,3.23
2019-03-19T09:03:50.117Z,3.22
2019-03-19T09:04:57.209Z,3.22
2019-03-19T09:06:00.460Z,3.30
2019-03-19T09:07:06.478Z,3.58
2019-03-19T09:08:12.179Z,4.07
2019-03-19T09:09:15.228Z,4.34
2019-03-19T09:10:48.163Z,4.31
2019-03-19T09:11:27.066Z,4.31
2019-03-19T09:12:30.450Z,4.51
2019-03-19T09:13:33.686Z,4.51
2019-03-19T09:14:36.568Z,4.51
2019-03-19T09:15:41.525Z,4.57
2019-03-19T09:16:47.071Z,4.53
2019-03-19T09:17:50.006Z,4.53
2019-03-19T09:18:53.419Z,4.78
2019-03-19T09:19:56.647Z,6.44
2019-03-19T09:20:59.581Z,6.52
2019-03-19T09:22:04.407Z,6.52
2019-03-19T09:23:07.773Z,6.06
2019-03-19T09:24:13.208Z,6.83
2019-03-19T09:25:16.063Z,6.83
2019-03-19T09:26:23.068Z,8.17
2019-03-19T09:27:27.738Z,8.55
2019-03-19T09:28:32.342Z,8.55
2019-03-19T09:29:35.266Z,8.92
2019-03-19T09:30:40.367Z,9.83
2019-03-19T09:31:43.225Z,9.40
2019-03-19T09:32:46.631Z,9.40
2019-03-19T09:33:49.771Z,8.97
2019-03-19T09:34:52.653Z,7.79
2019-03-19T09:36:10.222Z,7.31
2019-03-19T09:37:14.073Z,7.70
2019-03-19T09:38:16.935Z,8.21
2019-03-19T09:39:20.404Z,8.21
2019-03-19T09:40:28.424Z,8.03
2019-03-19T09:41:31.771Z,7.99
2019-03-19T09:42:35.771Z,7.61
2019-03-19T09:43:38.640Z,8.17
2019-03-19T09:44:41.700Z,8.61
2019-03-19T09:45:44.688Z,8.95
2019-03-19T09:46:47.534Z,8.50
2019-03-19T09:47:50.375Z,8.83
2019-03-19T09:48:53.501Z,8.83
2019-03-19T09:49:56.453Z,9.51
2019-03-19T09:50:59.443Z,10.23
2019-03-19T09:52:03.033Z,9.34
2019-03-19T09:53:06.436Z,9.03
2019-03-19T09:54:09.304Z,9.03
2019-03-19T09:55:12.219Z,9.86
2019-03-19T09:56:15.513Z,10.52
2019-03-19T09:57:18.401Z,10.52
2019-03-19T09:58:24.560Z,11.14
2019-03-19T09:59:27.998Z,11.61
2019-03-19T10:00:30.814Z,11.61
2019-03-19T10:01:33.760Z,9.92
2019-03-19T10:02:36.595Z,10.38
2019-03-19T10:03:39.411Z,10.85
2019-03-19T10:04:44.893Z,11.27
2019-03-19T10:05:47.783Z,10.99
2019-03-19T10:06:50.732Z,11.19
2019-03-19T10:07:55.552Z,11.83
2019-03-19T10:08:59.756Z,11.91
2019-03-19T10:10:03.056Z,11.91
2019-03-19T10:11:08.886Z,10.18
2019-03-19T10:12:12.187Z,10.44
2019-03-19T10:13:15.569Z,10.95
2019-03-19T10:14:21.244Z,10.68
2019-03-19T10:15:25.366Z,10.68
2019-03-19T10:16:28.316Z,9.39
2019-03-19T10:17:31.172Z,9.39
2019-03-19T10:18:34.033Z,8.16
2019-03-19T10:19:39.797Z,7.75
2019-03-19T10:20:43.179Z,7.45
2019-03-19T10:21:49.138Z,7.64
2019-03-19T10:22:55.431Z,7.82
2019-03-19T10:23:58.331Z,7.07
2019-03-19T10:25:02.978Z,6.71
2019-03-19T10:26:06.998Z,6.71
2019-03-19T10:27:09.867Z,6.33
2019-03-19T10:28:12.755Z,6.04
2019-03-19T10:29:37.586Z,6.04
2019-03-19T10:30:31.697Z,6.07
2019-03-19T10:31:34.987Z,6.05
2019-03-19T10:32:39.302Z,5.83
2019-03-19T10:33:42.182Z,6.53
2019-03-19T10:34:45.082Z,7.30
2019-03-19T10:35:47.894Z,7.98
2019-03-19T10:36:50.868Z,7.98
2019-03-19T10:37:53.710Z,7.35
2019-03-19T10:38:56.909Z,6.70
2019-03-19T10:39:59.727Z,6.87
2019-03-19T10:41:02.605Z,6.89
2019-03-19T10:42:08.561Z,7.57
2019-03-19T10:43:11.426Z,8.09
2019-03-19T10:44:14.736Z,8.05
2019-03-19T10:45:17.547Z,8.79
2019-03-19T10:46:22.299Z,8.79
2019-03-19T10:47:27.100Z,9.59
2019-03-19T10:48:33.276Z,11.48
2019-03-19T10:49:39.608Z,11.48
2019-03-19T10:50:42.847Z,10.00
2019-03-19T10:51:45.711Z,10.32
2019-03-19T10:52:49.165Z,10.32
2019-03-19T10:53:52.072Z,10.29
2019-03-19T10:54:54.939Z,10.29
2019-03-19T10:55:58.114Z,9.35
2019-03-19T10:57:03.440Z,9.81
2019-03-19T10:58:10.889Z,9.33
2019-03-19T10:59:26.160Z,9.15
2019-03-19T11:00:29.589Z,8.29
2019-03-19T11:01:35.492Z,9.34
2019-03-19T11:02:40.155Z,10.39
2019-03-19T11:03:43.070Z,10.89
2019-03-19T11:04:45.971Z,10.88
2019-03-19T11:05:51.834Z,11.48
2019-03-19T11:06:54.596Z,8.98
2019-03-19T11:07:57.897Z,8.65
2019-03-19T11:09:02.974Z,8.65
2019-03-19T11:10:06.919Z,8.04
2019-03-19T11:11:16.370Z,8.04
2019-03-19T11:12:19.100Z,7.75
2019-03-19T11:13:21.815Z,7.75
2019-03-19T11:14:24.930Z,6.82
2019-03-19T11:15:31.384Z,6.54
2019-03-19T11:16:35.295Z,6.71
2019-03-19T11:17:38.526Z,6.41
2019-03-19T11:18:42.013Z,6.73
2019-03-19T11:19:49.898Z,7.91
2019-03-19T11:20:54.937Z,8.31
2019-03-19T11:21:57.767Z,8.39
2019-03-19T11:23:02.956Z,8.40
2019-03-19T11:24:10.926Z,8.47
2019-03-19T11:25:16.584Z,9.15
2019-03-19T11:26:22.785Z,9.61
2019-03-19T11:27:25.977Z,10.18
2019-03-19T11:28:41.816Z,10.75
2019-03-19T11:29:44.988Z,11.07
2019-03-19T11:42:54.698Z,10.95
2019-03-19T11:44:00.380Z,10.09
2019-03-19T11:45:09.440Z,9.36
2019-03-19T11:46:12.248Z,8.27
2019-03-19T11:47:17.655Z,7.70
2019-03-19T11:48:25.850Z,7.56
2019-03-19T11:49:29.058Z,7.95
2019-03-19T11:50:34.234Z,8.40
2019-03-19T11:51:39.322Z,8.12
2019-03-19T11:52:42.111Z,8.13
2019-03-19T11:53:45.461Z,9.16
2019-03-19T11:54:53.638Z,9.16
2019-03-19T11:55:56.387Z,9.07
2019-03-19T11:56:59.150Z,9.83
2019-03-19T11:58:02.135Z,10.08
2019-03-19T11:59:05.479Z,10.20
2019-03-19T12:00:11.533Z,10.10
2019-03-19T12:01:13.412Z,9.89
2019-03-19T12:02:25.629Z,9.43
2019-03-19T12:03:23.358Z,9.39
2019-03-19T12:04:27.226Z,9.04
2019-03-19T12:05:30.095Z,8.62
2019-03-19T12:06:32.807Z,8.18
2019-03-19T12:07:39.548Z,8.20
2019-03-19T12:08:45.894Z,8.61
2019-03-19T12:09:48.854Z,9.19
2019-03-19T12:10:52.145Z,9.65
2019-03-19T12:11:58.017Z,9.69
2019-03-19T12:13:00.718Z,9.82
2019-03-19T12:14:04.257Z,10.01
2019-03-19T12:15:07.148Z,10.48
2019-03-19T12:16:10.321Z,10.48
2019-03-19T12:17:13.565Z,11.02
2019-03-19T12:18:16.459Z,12.01
2019-03-19T12:19:19.473Z,11.61
2019-03-19T12:20:25.625Z,11.61
2019-03-19T12:21:28.709Z,12.42
2019-03-19T12:22:32.937Z,12.74
2019-03-19T12:23:37.088Z,12.54
2019-03-19T12:24:39.981Z,12.37
2019-03-19T12:25:46.152Z,11.81
2019-03-19T12:26:53.688Z,9.90
2019-03-19T12:27:58.961Z,10.48
2019-03-19T12:29:07.524Z,10.90
2019-03-19T12:30:22.932Z,11.08
2019-03-19T12:31:25.141Z,11.61
2019-03-19T12:32:28.076Z,11.94
2019-03-19T12:33:40.421Z,11.94
2019-03-19T12:34:36.178Z,11.81
2019-03-19T12:35:39.087Z,12.40
2019-03-19T12:36:41.871Z,12.79
2019-03-19T12:37:45.819Z,12.43
2019-03-19T12:38:48.623Z,12.43
2019-03-19T12:39:51.526Z,12.02
2019-03-19T12:40:54.269Z,12.02
2019-03-19T12:41:57.178Z,11.22
2019-03-19T12:43:02.242Z,11.22
2019-03-19T12:44:06.589Z,10.92
2019-03-19T12:45:09.720Z,10.74
2019-03-19T12:46:12.551Z,10.85
2019-03-19T12:47:24.816Z,10.25
2019-03-19T12:48:29.795Z,10.02
2019-03-19T12:49:32.775Z,10.02
2019-03-19T12:50:38.438Z,12.11
2019-03-19T12:51:41.120Z,12.70
2019-03-19T12:52:43.918Z,10.87
2019-03-19T12:53:49.681Z,10.72
2019-03-19T12:54:52.369Z,10.08
2019-03-19T12:55:55.390Z,11.22
2019-03-19T12:56:59.575Z,11.71
2019-03-19T12:58:04.019Z,12.92
2019-03-19T12:59:07.162Z,13.06
2019-03-19T13:00:09.907Z,13.06
2019-03-19T13:01:13.565Z,12.45
2019-03-19T13:02:16.705Z,12.32
2019-03-19T13:03:19.838Z,12.32
2019-03-19T13:04:24.760Z,11.89
2019-03-19T13:05:27.528Z,11.89
2019-03-19T13:06:35.262Z,11.85
2019-03-19T13:07:39.050Z,11.67
2019-03-19T13:08:44.492Z,11.67
2019-03-19T13:09:47.852Z,11.65
2019-03-19T13:10:51.279Z,11.61
2019-03-19T13:11:54.662Z,12.33
2019-03-19T13:12:57.511Z,12.29
2019-03-19T13:14:00.812Z,12.12
2019-03-19T13:15:03.942Z,12.59
2019-03-19T13:16:08.563Z,13.42
2019-03-19T13:17:14.113Z,13.42
2019-03-19T13:18:16.994Z,12.61
2019-03-19T13:19:19.843Z,11.66
2019-03-19T13:20:23.371Z,11.67
2019-03-19T13:21:26.153Z,12.27
2019-03-19T13:22:32.058Z,11.07
2019-03-19T13:23:34.855Z,11.16
2019-03-19T13:24:38.320Z,11.82
2019-03-19T13:25:41.316Z,11.79
2019-03-19T13:26:44.272Z,12.02
2019-03-19T13:27:48.927Z,10.07
2019-03-19T13:28:55.038Z,9.80
2019-03-19T13:29:57.771Z,9.80
2019-03-19T13:31:02.670Z,11.00
2019-03-19T13:32:05.371Z,11.00
2019-03-19T13:33:08.182Z,10.20
2019-03-19T13:34:11.060Z,10.20
2019-03-19T13:35:16.839Z,10.66
2019-03-19T13:36:24.324Z,9.41
2019-03-19T13:37:27.011Z,9.94
2019-03-19T13:38:32.160Z,10.81
2019-03-19T13:39:35.051Z,10.81
2019-03-19T13:40:38.275Z,12.49
2019-03-19T13:41:43.111Z,13.11
2019-03-19T13:42:46.805Z,12.27
2019-03-19T13:43:49.756Z,11.12
2019-03-19T13:44:53.055Z,12.09
2019-03-19T13:45:58.768Z,12.14
2019-03-19T13:47:02.008Z,13.20
2019-03-19T13:48:05.926Z,12.73
2019-03-19T13:49:08.754Z,12.37
2019-03-19T13:50:14.031Z,12.58
2019-03-19T13:51:16.701Z,12.83
2019-03-19T13:52:23.083Z,12.85
2019-03-19T13:53:26.642Z,13.05
2019-03-19T13:54:36.082Z,13.31
2019-03-19T13:55:51.338Z,12.60
2019-03-19T13:56:58.408Z,11.60
2019-03-19T13:58:01.201Z,11.25
2019-03-19T13:59:04.719Z,11.29
2019-03-19T14:00:11.470Z,11.41
2019-03-19T14:01:18.816Z,12.02
2019-03-19T14:02:24.021Z,11.91
2019-03-19T14:03:28.107Z,11.07
2019-03-19T14:04:31.183Z,11.38
2019-03-19T14:05:34.339Z,11.64
2019-03-19T14:06:37.458Z,11.43
2019-03-19T14:07:40.622Z,11.43
2019-03-19T14:08:46.487Z,12.01
2019-03-19T14:09:51.909Z,11.70
2019-03-19T14:11:03.983Z,11.70
2019-03-19T14:12:06.808Z,12.19
2019-03-19T14:13:10.500Z,11.09
2019-03-19T14:14:13.236Z,9.93
2019-03-19T14:15:15.935Z,9.93
2019-03-19T14:16:21.026Z,9.93
2019-03-19T14:17:28.683Z,10.87
2019-03-19T14:18:31.450Z,10.39